Time;durP1;ratioP1;P1;durP2;ratioP2;P2;SDS_P1;SDS_P2;PMS_P1;PMS_P2;Temp;Humidity;BMP_temperature;BMP_pressure;BME280_temperature;BME280_humidity;BME280_pressure;Samples;Min_cycle;Max_cycle;Signal;HPM_P1;HPM_P2
2022/10/16 00:03:58;;;;;;;27.48;12.55;;;;;;;;;;10326944;28;20022;-80
2022/10/16 00:08:58;;;;;;;27.42;12.95;;;;;;;;;;10326520;28;20022;-78
2022/10/16 00:13:59;;;;;;;22.47;11.73;;;;;;;;;;10326349;28;20464;-79
2022/10/16 00:19:01;;;;;;;17.40;11.00;;;;;;;;;;10325997;28;20076;-80
2022/10/16 00:24:06;;;;;;;23.98;11.52;;;;;;;;;;10311361;28;20113;-83
2022/10/16 00:29:07;;;;;;;22.58;12.20;;;;;;;;;;10324145;28;20022;-74
2022/10/16 00:34:07;;;;;;;22.83;12.00;;;;;;;;;;10323693;28;20360;-83
2022/10/16 00:39:12;;;;;;;28.27;11.63;;;;;;;;;;10326105;28;20776;-81
2022/10/16 00:44:31;;;;;;;20.83;11.02;;;;;;;;;;10323950;28;20034;-82
2022/10/16 00:49:32;;;;;;;23.40;10.48;;;;;;;;;;10321018;28;20572;-75
2022/10/16 00:54:32;;;;;;;24.50;11.60;;;;;;;;;;10324076;28;20026;-85
2022/10/16 00:59:34;;;;;;;20.17;10.85;;;;;;;;;;10323569;28;20297;-81
2022/10/16 01:04:36;;;;;;;27.35;11.25;;;;;;;;;;10325679;28;20046;-76
2022/10/16 01:09:39;;;;;;;26.00;11.93;;;;;;;;;;10323324;28;20050;-78
2022/10/16 01:14:43;;;;;;;21.08;11.00;;;;;;;;;;10322050;28;20359;-78
2022/10/16 01:20:01;;;;;;;22.20;11.00;;;;;;;;;;10305307;28;20444;-79
2022/10/16 01:25:05;;;;;;;22.63;9.73;;;;;;;;;;10322928;28;20500;-80
2022/10/16 01:30:23;;;;;;;20.50;10.73;;;;;;;;;;10321303;28;20029;-77
2022/10/16 01:35:23;;;;;;;22.52;10.98;;;;;;;;;;10321215;28;20022;-76
2022/10/16 01:40:25;;;;;;;16.45;8.23;;;;;;;;;;10320916;28;20505;-83
2022/10/16 01:45:27;;;;;;;12.25;6.32;;;;;;;;;;10320764;28;20121;-81
2022/10/16 01:50:27;;;;;;;10.55;6.32;;;;;;;;;;10321105;28;20077;-77
2022/10/16 01:55:30;;;;;;;10.50;5.43;;;;;;;;;;10320240;28;20181;-76
2022/10/16 02:00:31;;;;;;;13.48;6.82;;;;;;;;;;10326074;28;20032;-80
2022/10/16 02:05:38;;;;;;;11.10;6.27;;;;;;;;;;10321792;28;20022;-81
2022/10/16 02:10:39;;;;;;;9.97;6.50;;;;;;;;;;10318169;28;20134;-79
2022/10/16 02:15:39;;;;;;;15.70;7.13;;;;;;;;;;10318606;28;20018;-78
2022/10/16 02:20:48;;;;;;;10.95;6.05;;;;;;;;;;10319466;28;20090;-76
2022/10/16 02:25:50;;;;;;;13.98;5.78;;;;;;;;;;10318957;28;20018;-78
2022/10/16 02:30:53;;;;;;;9.63;6.00;;;;;;;;;;10319818;28;20027;-79
2022/10/16 02:35:54;;;;;;;15.82;7.30;;;;;;;;;;10317974;28;20018;-76
2022/10/16 02:40:54;;;;;;;9.10;5.95;;;;;;;;;;10318006;28;21217;-78
2022/10/16 02:45:55;;;;;;;8.05;5.60;;;;;;;;;;10318373;28;21356;-81
2022/10/16 02:50:55;;;;;;;13.03;6.57;;;;;;;;;;10317812;28;20092;-78
2022/10/16 02:55:55;;;;;;;10.30;6.63;;;;;;;;;;10319012;28;20374;-81
2022/10/16 03:00:55;;;;;;;10.55;6.03;;;;;;;;;;10317385;28;20351;-79
2022/10/16 03:05:56;;;;;;;13.57;6.50;;;;;;;;;;10317510;28;20030;-79
2022/10/16 03:10:57;;;;;;;13.05;7.57;;;;;;;;;;10316740;28;20022;-76
2022/10/16 03:15:57;;;;;;;12.02;6.85;;;;;;;;;;10316640;28;20022;-80
2022/10/16 03:20:57;;;;;;;14.75;8.20;;;;;;;;;;10316632;28;20025;-80
2022/10/16 03:25:58;;;;;;;19.40;8.23;;;;;;;;;;10316380;28;20018;-79
2022/10/16 03:30:58;;;;;;;16.35;8.73;;;;;;;;;;10316432;28;20021;-79
2022/10/16 03:35:59;;;;;;;15.52;9.20;;;;;;;;;;10317540;28;20014;-77
2022/10/16 03:40:59;;;;;;;12.80;7.20;;;;;;;;;;10317211;28;20061;-76
2022/10/16 03:45:59;;;;;;;17.00;7.43;;;;;;;;;;10303797;28;20535;-78
2022/10/16 03:50:59;;;;;;;12.98;8.73;;;;;;;;;;10316768;28;20405;-81
2022/10/16 03:56:00;;;;;;;14.00;8.32;;;;;;;;;;10316905;28;20010;-76
2022/10/16 04:01:00;;;;;;;16.58;8.63;;;;;;;;;;10315644;28;20033;-77
2022/10/16 04:06:00;;;;;;;15.70;8.65;;;;;;;;;;10316290;28;20477;-79
2022/10/16 04:11:01;;;;;;;15.02;7.82;;;;;;;;;;10317412;28;20045;-79
2022/10/16 04:16:03;;;;;;;19.10;9.63;;;;;;;;;;10318238;28;20022;-77
2022/10/16 04:21:04;;;;;;;23.48;10.10;;;;;;;;;;10315411;28;20026;-73
2022/10/16 04:26:05;;;;;;;18.48;9.50;;;;;;;;;;10315675;28;20404;-73
2022/10/16 04:31:06;;;;;;;23.30;10.67;;;;;;;;;;10314877;28;20114;-76
2022/10/16 04:36:06;;;;;;;20.95;10.30;;;;;;;;;;10320363;28;20165;-73
2022/10/16 04:41:07;;;;;;;16.83;9.17;;;;;;;;;;10321313;28;20019;-81
2022/10/16 04:46:07;;;;;;;16.83;10.20;;;;;;;;;;10322946;28;20150;-84
2022/10/16 04:51:08;;;;;;;18.95;10.73;;;;;;;;;;10322072;28;20014;-80
2022/10/16 04:56:09;;;;;;;19.52;10.45;;;;;;;;;;10321903;28;20022;-81
2022/10/16 05:01:09;;;;;;;21.13;10.40;;;;;;;;;;10323284;28;20105;-79
2022/10/16 05:06:10;;;;;;;22.55;9.68;;;;;;;;;;10320004;28;20473;-80
2022/10/16 05:11:10;;;;;;;13.00;7.63;;;;;;;;;;10322827;28;20404;-75
2022/10/16 05:16:12;;;;;;;17.02;9.15;;;;;;;;;;10323684;28;20022;-83
2022/10/16 05:21:12;;;;;;;19.70;8.35;;;;;;;;;;10322713;28;20464;-74
2022/10/16 05:26:12;;;;;;;15.00;8.43;;;;;;;;;;10319627;28;20022;-79
2022/10/16 05:31:12;;;;;;;17.02;8.48;;;;;;;;;;10319348;28;20045;-81
2022/10/16 05:36:13;;;;;;;13.00;9.02;;;;;;;;;;10318877;28;20140;-77
2022/10/16 05:41:13;;;;;;;14.53;8.43;;;;;;;;;;10320392;28;20022;-75
2022/10/16 05:46:13;;;;;;;18.50;8.70;;;;;;;;;;10318700;28;20039;-81
2022/10/16 05:51:14;;;;;;;15.80;7.80;;;;;;;;;;10319220;28;20022;-79
2022/10/16 05:56:15;;;;;;;12.18;7.38;;;;;;;;;;10321246;28;20106;-79
2022/10/16 06:01:16;;;;;;;12.45;7.35;;;;;;;;;;10321343;28;20018;-80
2022/10/16 06:06:20;;;;;;;12.05;7.68;;;;;;;;;;10315814;28;20072;-78
2022/10/16 06:11:22;;;;;;;13.13;7.60;;;;;;;;;;10319824;28;20176;-81
2022/10/16 06:16:23;;;;;;;11.43;6.97;;;;;;;;;;10321160;28;20026;-78
2022/10/16 06:21:24;;;;;;;10.40;6.22;;;;;;;;;;10318395;28;20022;-79
2022/10/16 06:26:26;;;;;;;13.38;6.47;;;;;;;;;;10315387;28;20026;-82
2022/10/16 06:31:28;;;;;;;9.13;5.95;;;;;;;;;;10317506;28;20026;-76
2022/10/16 06:36:29;;;;;;;7.50;4.55;;;;;;;;;;10316859;28;20057;-82
2022/10/16 06:41:30;;;;;;;9.00;5.78;;;;;;;;;;10317719;28;20014;-79
2022/10/16 06:46:30;;;;;;;10.18;5.43;;;;;;;;;;10317686;28;20046;-78
2022/10/16 06:51:31;;;;;;;8.05;5.72;;;;;;;;;;10313279;28;20026;-77
2022/10/16 06:56:33;;;;;;;10.05;5.90;;;;;;;;;;10312180;28;20461;-80
2022/10/16 07:01:33;;;;;;;14.20;6.97;;;;;;;;;;10307503;28;20053;-79
2022/10/16 07:06:34;;;;;;;10.10;7.00;;;;;;;;;;10313042;28;20030;-78
2022/10/16 07:11:34;;;;;;;11.23;5.68;;;;;;;;;;10312056;28;20014;-79
2022/10/16 07:16:34;;;;;;;13.25;7.38;;;;;;;;;;10311446;28;20084;-77
2022/10/16 07:21:35;;;;;;;13.70;8.18;;;;;;;;;;10308953;28;20033;-79
2022/10/16 07:26:36;;;;;;;17.08;8.73;;;;;;;;;;10306825;28;20131;-79
2022/10/16 07:31:36;;;;;;;18.40;9.13;;;;;;;;;;10305697;28;20034;-79
2022/10/16 07:36:36;;;;;;;16.13;7.57;;;;;;;;;;10307885;28;20037;-76
2022/10/16 07:41:37;;;;;;;16.95;8.63;;;;;;;;;;10302356;28;20057;-77
2022/10/16 07:46:37;;;;;;;19.20;9.40;;;;;;;;;;10307110;28;20225;-81
2022/10/16 07:51:39;;;;;;;24.50;9.93;;;;;;;;;;10307892;28;20543;-79
2022/10/16 07:56:39;;;;;;;15.93;8.93;;;;;;;;;;10319199;28;20026;-76
2022/10/16 08:01:40;;;;;;;13.18;7.90;;;;;;;;;;10309634;28;20022;-80
2022/10/16 08:06:40;;;;;;;10.82;6.97;;;;;;;;;;10309903;28;20839;-75
2022/10/16 08:11:40;;;;;;;16.35;7.07;;;;;;;;;;10317762;28;20121;-72
2022/10/16 08:16:41;;;;;;;12.20;6.22;;;;;;;;;;10320458;28;20041;-76
2022/10/16 08:21:41;;;;;;;12.23;5.90;;;;;;;;;;10322351;28;20037;-76
2022/10/16 08:26:41;;;;;;;13.73;5.85;;;;;;;;;;10318391;28;20026;-80
2022/10/16 08:31:41;;;;;;;14.17;6.03;;;;;;;;;;10318186;28;20058;-74
2022/10/16 08:36:42;;;;;;;10.10;5.00;;;;;;;;;;10319291;28;20022;-76
2022/10/16 08:41:48;;;;;;;12.82;4.50;;;;;;;;;;10319282;28;20030;-74
2022/10/16 08:46:57;;;;;;;6.00;3.53;;;;;;;;;;10317402;28;20513;-80
2022/10/16 08:51:58;;;;;;;6.03;3.42;;;;;;;;;;10318546;28;20297;-80
2022/10/16 08:57:06;;;;;;;5.78;3.40;;;;;;;;;;10316098;28;20030;-78
2022/10/16 09:02:19;;;;;;;5.75;3.78;;;;;;;;;;10319343;28;20029;-78
2022/10/16 09:07:23;;;;;;;6.90;3.35;;;;;;;;;;10316347;28;20513;-79
2022/10/16 09:12:23;;;;;;;5.90;3.65;;;;;;;;;;10318161;28;20519;-81
2022/10/16 09:17:32;;;;;;;9.70;4.07;;;;;;;;;;10318200;28;20068;-73
2022/10/16 09:22:32;;;;;;;4.28;3.33;;;;;;;;;;10315308;28;20030;-73
2022/10/16 09:27:33;;;;;;;6.82;3.00;;;;;;;;;;10314856;28;20022;-78
2022/10/16 09:32:33;;;;;;;6.77;2.97;;;;;;;;;;10302477;28;20045;-80
2022/10/16 09:37:33;;;;;;;5.13;2.85;;;;;;;;;;10316812;28;20053;-76
2022/10/16 09:42:35;;;;;;;4.50;2.33;;;;;;;;;;10315684;28;20030;-75
2022/10/16 09:47:39;;;;;;;4.45;2.67;;;;;;;;;;10315848;28;20125;-79
2022/10/16 09:52:39;;;;;;;4.47;2.58;;;;;;;;;;10300397;28;20038;-74
2022/10/16 09:57:50;;;;;;;6.50;2.90;;;;;;;;;;10313940;28;20042;-75
2022/10/16 10:02:50;;;;;;;6.55;2.03;;;;;;;;;;10314321;28;20011;-76
2022/10/16 10:07:59;;;;;;;2.90;1.80;;;;;;;;;;10314720;28;20720;-74
2022/10/16 10:12:59;;;;;;;7.43;2.00;;;;;;;;;;10315350;28;20339;-77
2022/10/16 10:18:02;;;;;;;8.53;2.53;;;;;;;;;;10318270;28;20053;-75
2022/10/16 10:23:20;;;;;;;4.10;2.15;;;;;;;;;;10314979;28;20017;-75
2022/10/16 10:28:39;;;;;;;55.50;47.90;;;;;;;;;;10312418;28;20080;-80
2022/10/16 10:33:51;;;;;;;4.32;2.83;;;;;;;;;;10311962;28;20049;-74
2022/10/16 10:38:56;;;;;;;6.55;2.97;;;;;;;;;;10316334;28;20084;-81
2022/10/16 10:44:15;;;;;;;2.83;1.80;;;;;;;;;;10313998;28;20080;-73
2022/10/16 10:49:36;;;;;;;7.13;2.10;;;;;;;;;;10311208;28;20097;-74
2022/10/16 10:54:59;;;;;;;3.65;2.10;;;;;;;;;;10312083;28;20029;-74
2022/10/16 11:00:09;;;;;;;2.65;2.08;;;;;;;;;;10306779;28;20031;-79
2022/10/16 11:05:09;;;;;;;5.85;1.80;;;;;;;;;;10312433;28;20021;-77
2022/10/16 11:10:15;;;;;;;1.58;1.20;;;;;;;;;;10546992;23;20055;-75
2022/10/16 11:15:18;;;;;;;2.90;1.48;;;;;;;;;;10254391;28;20023;-75
2022/10/16 11:20:27;;;;;;;1.25;1.02;;;;;;;;;;10255296;28;20032;-74
2022/10/16 11:25:31;;;;;;;2.63;1.60;;;;;;;;;;10261167;28;20022;-81
2022/10/16 11:30:38;;;;;;;4.85;2.17;;;;;;;;;;10255116;28;20023;-75
2022/10/16 11:35:57;;;;;;;2.78;1.85;;;;;;;;;;10249837;28;20146;-77
2022/10/16 11:41:04;;;;;;;5.68;2.05;;;;;;;;;;10264173;28;20030;-78
2022/10/16 11:46:10;;;;;;;6.47;2.22;;;;;;;;;;10309272;28;20475;-76
2022/10/16 11:51:33;;;;;;;3.85;2.60;;;;;;;;;;10306033;28;20075;-79
2022/10/16 11:56:36;;;;;;;3.08;2.30;;;;;;;;;;10307735;28;20145;-79
2022/10/16 12:01:43;;;;;;;4.18;1.95;;;;;;;;;;10306145;28;20160;-76
2022/10/16 12:07:03;;;;;;;3.38;2.40;;;;;;;;;;10306576;28;20467;-79
2022/10/16 12:12:03;;;;;;;4.05;2.10;;;;;;;;;;10323097;28;20616;-75
2022/10/16 12:17:22;;;;;;;2.92;2.20;;;;;;;;;;10308626;28;20018;-79
2022/10/16 12:22:22;;;;;;;6.50;2.70;;;;;;;;;;10310671;28;20101;-75
2022/10/16 12:27:32;;;;;;;3.80;2.58;;;;;;;;;;10308213;28;20041;-77
2022/10/16 12:32:37;;;;;;;6.15;2.80;;;;;;;;;;10308241;28;20030;-76
2022/10/16 12:37:38;;;;;;;2.75;2.00;;;;;;;;;;10308689;28;20018;-78
2022/10/16 12:42:38;;;;;;;6.85;2.50;;;;;;;;;;10306829;28;20015;-77
2022/10/16 12:47:47;;;;;;;5.20;2.55;;;;;;;;;;10309154;28;20063;-75
2022/10/16 12:52:48;;;;;;;5.75;2.40;;;;;;;;;;10307865;28;20148;-78
2022/10/16 12:58:03;;;;;;;5.17;2.50;;;;;;;;;;10297395;28;20065;-77
2022/10/16 13:03:03;;;;;;;5.85;2.80;;;;;;;;;;10298328;28;20055;-77
2022/10/16 13:08:06;;;;;;;8.68;3.10;;;;;;;;;;10297912;28;20053;-77
2022/10/16 13:13:18;;;;;;;6.65;3.08;;;;;;;;;;10298591;28;20022;-75
2022/10/16 13:18:18;;;;;;;6.05;2.78;;;;;;;;;;10303226;28;20026;-77
2022/10/16 13:23:31;;;;;;;6.65;2.38;;;;;;;;;;10297788;28;20397;-77
2022/10/16 13:28:32;;;;;;;6.75;2.92;;;;;;;;;;10314093;28;20015;-79
2022/10/16 13:33:35;;;;;;;4.03;2.78;;;;;;;;;;10298262;28;20110;-74
2022/10/16 13:38:36;;;;;;;7.38;3.20;;;;;;;;;;10299021;28;20432;-80
2022/10/16 13:43:44;;;;;;;4.60;2.50;;;;;;;;;;10298539;28;20030;-77
2022/10/16 13:48:55;;;;;;;8.82;2.22;;;;;;;;;;10302330;28;20070;-75
2022/10/16 13:53:59;;;;;;;4.25;2.53;;;;;;;;;;10297518;28;20023;-79
2022/10/16 13:59:04;;;;;;;2.70;2.20;;;;;;;;;;10297006;28;20515;-77
2022/10/16 14:04:06;;;;;;;6.40;3.50;;;;;;;;;;10316507;28;20027;-78
2022/10/16 14:09:09;;;;;;;3.25;2.42;;;;;;;;;;10315941;28;20046;-81
2022/10/16 14:14:11;;;;;;;5.35;2.38;;;;;;;;;;10319583;28;20548;-82
2022/10/16 14:19:17;;;;;;;4.45;2.70;;;;;;;;;;10307072;28;20049;-80
2022/10/16 14:24:25;;;;;;;4.78;2.33;;;;;;;;;;10313204;28;20038;-80
2022/10/16 14:29:31;;;;;;;6.22;2.50;;;;;;;;;;10323530;28;20022;-83
2022/10/16 14:34:53;;;;;;;6.95;2.33;;;;;;;;;;10302391;28;20113;-76
2022/10/16 14:39:53;;;;;;;5.30;2.40;;;;;;;;;;10306850;28;20624;-78
2022/10/16 14:44:54;;;;;;;3.72;2.63;;;;;;;;;;10313699;28;20117;-79
2022/10/16 14:49:55;;;;;;;7.88;2.53;;;;;;;;;;10311995;28;20038;-78
2022/10/16 14:54:56;;;;;;;7.45;3.70;;;;;;;;;;10313426;28;20250;-80
2022/10/16 14:59:56;;;;;;;4.50;2.85;;;;;;;;;;10307637;28;20265;-81
2022/10/16 15:04:57;;;;;;;9.07;2.80;;;;;;;;;;10307773;28;20088;-75
2022/10/16 15:09:58;;;;;;;6.40;3.42;;;;;;;;;;10306481;28;20058;-77
2022/10/16 15:14:58;;;;;;;17.40;2.92;;;;;;;;;;10308304;28;20037;-77
2022/10/16 15:19:58;;;;;;;4.57;2.97;;;;;;;;;;10303067;28;20527;-79
2022/10/16 15:24:59;;;;;;;6.47;3.25;;;;;;;;;;10309842;28;20062;-82
2022/10/16 15:30:00;;;;;;;8.13;3.10;;;;;;;;;;10308307;28;20080;-81
2022/10/16 15:35:15;;;;;;;4.97;3.15;;;;;;;;;;10326300;28;20062;-78
2022/10/16 15:40:18;;;;;;;8.23;3.22;;;;;;;;;;10302718;28;20488;-78
2022/10/16 15:45:19;;;;;;;8.90;3.50;;;;;;;;;;10299937;28;20022;-79
2022/10/16 15:50:21;;;;;;;7.32;4.40;;;;;;;;;;10292442;28;20484;-81
2022/10/16 15:55:21;;;;;;;9.35;3.65;;;;;;;;;;10295018;28;20021;-73
2022/10/16 16:00:21;;;;;;;9.32;3.03;;;;;;;;;;10306455;28;20026;-75
2022/10/16 16:05:28;;;;;;;6.70;3.45;;;;;;;;;;10305690;28;20027;-79
2022/10/16 16:10:28;;;;;;;19.67;6.53;;;;;;;;;;10316945;28;20082;-78
2022/10/16 16:15:28;;;;;;;11.25;3.75;;;;;;;;;;10305892;28;20084;-80
2022/10/16 16:20:29;;;;;;;11.65;4.95;;;;;;;;;;10305741;28;20070;-75
2022/10/16 16:25:29;;;;;;;16.08;5.47;;;;;;;;;;10301421;28;20366;-79
2022/10/16 16:30:31;;;;;;;17.13;5.85;;;;;;;;;;10308236;28;20029;-77
2022/10/16 16:35:31;;;;;;;19.75;5.90;;;;;;;;;;10316659;28;20036;-77
2022/10/16 16:40:31;;;;;;;23.58;9.98;;;;;;;;;;10321148;28;20151;-81
2022/10/16 16:45:35;;;;;;;23.55;9.82;;;;;;;;;;10315229;28;20089;-80
2022/10/16 16:50:38;;;;;;;21.30;8.93;;;;;;;;;;10313323;28;20033;-76
2022/10/16 16:55:41;;;;;;;19.25;9.15;;;;;;;;;;10310069;28;20100;-79
2022/10/16 17:00:45;;;;;;;18.55;9.40;;;;;;;;;;10308720;28;20869;-81
2022/10/16 17:05:59;;;;;;;26.00;9.25;;;;;;;;;;10304892;28;20129;-76
2022/10/16 17:10:59;;;;;;;22.42;8.73;;;;;;;;;;10309014;28;20042;-77
2022/10/16 17:16:00;;;;;;;21.98;8.52;;;;;;;;;;10305305;28;20517;-81
2022/10/16 17:21:03;;;;;;;14.52;7.05;;;;;;;;;;10308323;28;20598;-73
2022/10/16 17:26:07;;;;;;;22.55;8.38;;;;;;;;;;10314062;28;20077;-81
2022/10/16 17:31:08;;;;;;;18.67;7.47;;;;;;;;;;10312136;28;20124;-75
2022/10/16 17:36:10;;;;;;;31.52;8.82;;;;;;;;;;10319284;28;20054;-78
2022/10/16 17:41:21;;;;;;;21.23;8.43;;;;;;;;;;10326270;28;20096;-77
2022/10/16 17:46:22;;;;;;;15.07;7.78;;;;;;;;;;10318167;28;20089;-78
2022/10/16 17:51:24;;;;;;;21.15;9.55;;;;;;;;;;10307933;28;20108;-75
2022/10/16 17:56:25;;;;;;;17.98;7.97;;;;;;;;;;10307017;28;20034;-75
2022/10/16 18:01:26;;;;;;;16.63;7.30;;;;;;;;;;10306071;28;20463;-77
2022/10/16 18:06:27;;;;;;;13.25;5.72;;;;;;;;;;10308208;28;20540;-77
2022/10/16 18:11:27;;;;;;;15.65;6.95;;;;;;;;;;10314755;28;20061;-77
2022/10/16 18:16:29;;;;;;;10.65;4.40;;;;;;;;;;10309166;28;20084;-74
2022/10/16 18:21:29;;;;;;;8.48;5.13;;;;;;;;;;10305264;28;20034;-79
2022/10/16 18:26:29;;;;;;;10.10;4.88;;;;;;;;;;10306519;28;20038;-77
2022/10/16 18:31:30;;;;;;;11.02;4.63;;;;;;;;;;10310301;28;20042;-76
2022/10/16 18:36:31;;;;;;;9.70;4.25;;;;;;;;;;10308651;28;20085;-75
2022/10/16 18:41:32;;;;;;;7.75;4.45;;;;;;;;;;10306027;28;20034;-76
2022/10/16 18:46:32;;;;;;;7.13;4.28;;;;;;;;;;10311222;28;20034;-75
2022/10/16 18:51:34;;;;;;;10.45;5.63;;;;;;;;;;10301048;28;20037;-79
2022/10/16 18:56:34;;;;;;;8.30;4.63;;;;;;;;;;10310950;28;20514;-79
2022/10/16 19:01:38;;;;;;;14.30;5.67;;;;;;;;;;10306952;28;20092;-78
2022/10/16 19:06:40;;;;;;;9.82;5.20;;;;;;;;;;10307733;28;20069;-78
2022/10/16 19:11:41;;;;;;;10.95;4.82;;;;;;;;;;10308257;28;20042;-78
2022/10/16 19:16:42;;;;;;;9.68;5.22;;;;;;;;;;10304005;28;20018;-78
2022/10/16 19:21:46;;;;;;;8.07;4.45;;;;;;;;;;10305932;28;20023;-80
2022/10/16 19:26:46;;;;;;;10.25;5.07;;;;;;;;;;10311003;28;20014;-75
2022/10/16 19:31:47;;;;;;;8.68;4.90;;;;;;;;;;10313823;28;20307;-78
2022/10/16 19:36:50;;;;;;;10.75;4.75;;;;;;;;;;10316494;28;20312;-74
2022/10/16 19:41:50;;;;;;;8.63;4.40;;;;;;;;;;10310389;28;20064;-74
2022/10/16 19:46:51;;;;;;;7.30;4.55;;;;;;;;;;10317317;28;20481;-74
2022/10/16 19:51:53;;;;;;;17.58;5.45;;;;;;;;;;10308377;28;20587;-74
2022/10/16 19:56:53;;;;;;;7.32;5.07;;;;;;;;;;10309776;28;20525;-76
2022/10/16 20:01:53;;;;;;;12.38;5.40;;;;;;;;;;10305442;28;20022;-76
2022/10/16 20:06:54;;;;;;;9.10;5.10;;;;;;;;;;10317465;28;20141;-77
2022/10/16 20:11:54;;;;;;;7.60;5.28;;;;;;;;;;10318371;28;20153;-80
2022/10/16 20:16:54;;;;;;;9.93;4.60;;;;;;;;;;10321335;28;20546;-77
2022/10/16 20:21:55;;;;;;;7.40;4.65;;;;;;;;;;10322998;28;20010;-79
2022/10/16 20:26:55;;;;;;;14.73;5.20;;;;;;;;;;10307788;28;20026;-74
2022/10/16 20:31:55;;;;;;;12.80;5.95;;;;;;;;;;10321671;28;20023;-80
2022/10/16 20:36:55;;;;;;;13.68;5.82;;;;;;;;;;10310020;28;20228;-74
2022/10/16 20:41:57;;;;;;;9.30;5.30;;;;;;;;;;10317313;28;20022;-77
2022/10/16 20:46:57;;;;;;;8.70;4.93;;;;;;;;;;10323702;28;20022;-81
2022/10/16 20:51:57;;;;;;;8.57;4.00;;;;;;;;;;10318088;28;20025;-81
2022/10/16 20:56:58;;;;;;;8.43;4.95;;;;;;;;;;10323955;28;20347;-74
2022/10/16 21:01:58;;;;;;;7.63;4.40;;;;;;;;;;10318331;28;20023;-78
2022/10/16 21:06:58;;;;;;;7.82;4.15;;;;;;;;;;10308979;28;20026;-75
2022/10/16 21:11:58;;;;;;;8.60;4.60;;;;;;;;;;10313934;28;20112;-75
2022/10/16 21:17:00;;;;;;;7.05;4.40;;;;;;;;;;10312160;28;20018;-77
2022/10/16 21:22:00;;;;;;;6.65;4.40;;;;;;;;;;10314426;28;20022;-76
2022/10/16 21:27:00;;;;;;;9.07;4.20;;;;;;;;;;10316715;28;20477;-75
2022/10/16 21:32:00;;;;;;;8.27;5.05;;;;;;;;;;10317785;28;20025;-75
2022/10/16 21:37:01;;;;;;;6.50;4.10;;;;;;;;;;10296959;28;20042;-76
2022/10/16 21:42:01;;;;;;;6.60;4.13;;;;;;;;;;10319699;28;20372;-76
2022/10/16 21:47:01;;;;;;;8.98;4.63;;;;;;;;;;10313367;28;20088;-75
2022/10/16 21:52:02;;;;;;;8.88;5.05;;;;;;;;;;10318128;28;20035;-77
2022/10/16 21:57:02;;;;;;;11.48;4.72;;;;;;;;;;10312977;28;20085;-77
2022/10/16 22:02:02;;;;;;;8.43;4.82;;;;;;;;;;10310791;28;20493;-74
2022/10/16 22:07:03;;;;;;;5.80;4.10;;;;;;;;;;10316652;28;20065;-74
2022/10/16 22:12:03;;;;;;;7.47;4.60;;;;;;;;;;10311923;28;20046;-79
2022/10/16 22:17:03;;;;;;;7.15;4.93;;;;;;;;;;10317918;28;20023;-74
2022/10/16 22:22:04;;;;;;;8.93;5.22;;;;;;;;;;10315890;28;20097;-75
2022/10/16 22:27:04;;;;;;;8.23;4.35;;;;;;;;;;10311282;28;20026;-78
2022/10/16 22:32:04;;;;;;;9.38;5.32;;;;;;;;;;10309126;28;20114;-74
2022/10/16 22:37:04;;;;;;;12.13;7.18;;;;;;;;;;10303423;28;20432;-75
2022/10/16 22:42:05;;;;;;;11.75;7.55;;;;;;;;;;10303597;28;20026;-75
2022/10/16 22:47:05;;;;;;;16.43;8.90;;;;;;;;;;10303070;28;20023;-75
2022/10/16 22:52:05;;;;;;;17.88;10.25;;;;;;;;;;10304829;28;20021;-75
2022/10/16 22:57:05;;;;;;;18.33;8.27;;;;;;;;;;10304242;28;20109;-76
2022/10/16 23:02:06;;;;;;;16.23;10.20;;;;;;;;;;10305455;28;20400;-75
2022/10/16 23:07:06;;;;;;;24.77;12.20;;;;;;;;;;10302669;28;20519;-77
2022/10/16 23:12:06;;;;;;;18.27;10.45;;;;;;;;;;10302623;28;20030;-74
2022/10/16 23:17:06;;;;;;;21.50;11.43;;;;;;;;;;10303763;28;20015;-74
2022/10/16 23:22:06;;;;;;;21.20;11.82;;;;;;;;;;10305751;28;20026;-74
2022/10/16 23:27:07;;;;;;;23.10;12.63;;;;;;;;;;10302428;28;20132;-73
2022/10/16 23:32:07;;;;;;;24.50;13.05;;;;;;;;;;10303152;28;20113;-76
2022/10/16 23:37:07;;;;;;;29.98;15.10;;;;;;;;;;10305279;28;20053;-75
2022/10/16 23:42:07;;;;;;;22.98;13.35;;;;;;;;;;10301476;28;20473;-76
2022/10/16 23:47:08;;;;;;;25.27;12.15;;;;;;;;;;10300269;28;20022;-76
2022/10/16 23:52:08;;;;;;;25.83;13.20;;;;;;;;;;10303469;28;20121;-75
2022/10/16 23:57:08;;;;;;;26.00;12.13;;;;;;;;;;10304835;28;20022;-82
